sensor_id;sensor_type;location;lat;lon;timestamp;P1;durP1;ratioP1;P2;durP2;ratioP2
20302;SDS011;10310;50.906;4.622;2022-08-01T00:01:58;3.43;;;2.27;;
20302;SDS011;10310;50.906;4.622;2022-08-01T00:04:25;3.30;;;2.27;;
20302;SDS011;10310;50.906;4.622;2022-08-01T00:06:53;2.83;;;2.23;;
20302;SDS011;10310;50.906;4.622;2022-08-01T00:09:20;4.83;;;2.27;;
20302;SDS011;10310;50.906;4.622;2022-08-01T00:11:47;2.30;;;2.07;;
20302;SDS011;10310;50.906;4.622;2022-08-01T00:14:13;4.10;;;2.30;;
20302;SDS011;10310;50.906;4.622;2022-08-01T00:16:40;4.37;;;2.40;;
20302;SDS011;10310;50.906;4.622;2022-08-01T00:19:07;5.30;;;2.83;;
20302;SDS011;10310;50.906;4.622;2022-08-01T00:21:34;5.40;;;3.00;;
20302;SDS011;10310;50.906;4.622;2022-08-01T00:24:02;3.67;;;3.10;;
20302;SDS011;10310;50.906;4.622;2022-08-01T00:26:29;4.83;;;3.00;;
20302;SDS011;10310;50.906;4.622;2022-08-01T00:28:56;6.47;;;3.60;;
20302;SDS011;10310;50.906;4.622;2022-08-01T00:31:23;6.10;;;3.10;;
20302;SDS011;10310;50.906;4.622;2022-08-01T00:33:50;7.03;;;3.87;;
20302;SDS011;10310;50.906;4.622;2022-08-01T00:36:17;5.70;;;3.97;;
20302;SDS011;10310;50.906;4.622;2022-08-01T00:38:44;6.80;;;4.00;;
20302;SDS011;10310;50.906;4.622;2022-08-01T00:41:12;5.47;;;3.87;;
20302;SDS011;10310;50.906;4.622;2022-08-01T00:43:39;6.43;;;3.90;;
20302;SDS011;10310;50.906;4.622;2022-08-01T00:46:06;7.50;;;3.80;;
20302;SDS011;10310;50.906;4.622;2022-08-01T00:48:32;6.37;;;4.40;;
20302;SDS011;10310;50.906;4.622;2022-08-01T00:50:59;6.60;;;3.80;;
20302;SDS011;10310;50.906;4.622;2022-08-01T00:53:27;5.37;;;3.90;;
20302;SDS011;10310;50.906;4.622;2022-08-01T00:55:53;5.47;;;4.23;;
20302;SDS011;10310;50.906;4.622;2022-08-01T00:58:22;6.03;;;4.70;;
20302;SDS011;10310;50.906;4.622;2022-08-01T01:00:49;7.10;;;4.67;;
20302;SDS011;10310;50.906;4.622;2022-08-01T01:03:16;6.10;;;4.63;;
20302;SDS011;10310;50.906;4.622;2022-08-01T01:05:45;6.20;;;4.40;;
20302;SDS011;10310;50.906;4.622;2022-08-01T01:08:19;5.80;;;4.57;;
20302;SDS011;10310;50.906;4.622;2022-08-01T01:10:52;8.63;;;5.00;;
20302;SDS011;10310;50.906;4.622;2022-08-01T01:13:26;7.50;;;4.77;;
20302;SDS011;10310;50.906;4.622;2022-08-01T01:16:00;6.83;;;4.67;;
20302;SDS011;10310;50.906;4.622;2022-08-01T01:18:33;5.93;;;4.60;;
20302;SDS011;10310;50.906;4.622;2022-08-01T01:21:05;7.60;;;4.70;;
20302;SDS011;10310;50.906;4.622;2022-08-01T01:23:45;7.17;;;5.03;;
20302;SDS011;10310;50.906;4.622;2022-08-01T01:26:27;8.73;;;5.07;;
20302;SDS011;10310;50.906;4.622;2022-08-01T01:29:07;9.13;;;4.93;;
20302;SDS011;10310;50.906;4.622;2022-08-01T01:31:40;8.03;;;5.20;;
20302;SDS011;10310;50.906;4.622;2022-08-01T01:34:11;6.77;;;4.97;;
20302;SDS011;10310;50.906;4.622;2022-08-01T01:36:39;7.73;;;5.27;;
20302;SDS011;10310;50.906;4.622;2022-08-01T01:39:07;8.57;;;4.73;;
20302;SDS011;10310;50.906;4.622;2022-08-01T01:41:35;6.90;;;4.63;;
20302;SDS011;10310;50.906;4.622;2022-08-01T01:44:03;6.13;;;4.40;;
20302;SDS011;10310;50.906;4.622;2022-08-01T01:46:33;7.77;;;4.50;;
20302;SDS011;10310;50.906;4.622;2022-08-01T01:49:01;6.13;;;4.30;;
20302;SDS011;10310;50.906;4.622;2022-08-01T01:51:29;6.00;;;4.27;;
20302;SDS011;10310;50.906;4.622;2022-08-01T01:53:57;5.70;;;4.23;;
20302;SDS011;10310;50.906;4.622;2022-08-01T01:56:27;5.90;;;4.50;;
20302;SDS011;10310;50.906;4.622;2022-08-01T01:58:56;6.13;;;4.27;;
20302;SDS011;10310;50.906;4.622;2022-08-01T02:01:26;5.47;;;4.20;;
20302;SDS011;10310;50.906;4.622;2022-08-01T02:03:57;7.87;;;4.43;;
20302;SDS011;10310;50.906;4.622;2022-08-01T02:06:25;6.20;;;5.30;;
20302;SDS011;10310;50.906;4.622;2022-08-01T02:08:53;8.23;;;6.37;;
20302;SDS011;10310;50.906;4.622;2022-08-01T02:11:21;8.63;;;6.23;;
20302;SDS011;10310;50.906;4.622;2022-08-01T02:13:51;8.90;;;7.13;;
20302;SDS011;10310;50.906;4.622;2022-08-01T02:16:21;9.90;;;7.90;;
20302;SDS011;10310;50.906;4.622;2022-08-01T02:18:51;10.13;;;8.33;;
20302;SDS011;10310;50.906;4.622;2022-08-01T02:21:20;10.47;;;8.07;;
20302;SDS011;10310;50.906;4.622;2022-08-01T02:23:53;11.03;;;8.37;;
20302;SDS011;10310;50.906;4.622;2022-08-01T02:26:21;12.57;;;8.93;;
20302;SDS011;10310;50.906;4.622;2022-08-01T02:28:50;13.47;;;9.33;;
20302;SDS011;10310;50.906;4.622;2022-08-01T02:31:22;11.87;;;9.23;;
20302;SDS011;10310;50.906;4.622;2022-08-01T02:33:52;12.57;;;10.10;;
20302;SDS011;10310;50.906;4.622;2022-08-01T02:36:25;13.73;;;10.37;;
20302;SDS011;10310;50.906;4.622;2022-08-01T02:38:54;15.20;;;10.10;;
20302;SDS011;10310;50.906;4.622;2022-08-01T02:41:23;12.83;;;9.93;;
20302;SDS011;10310;50.906;4.622;2022-08-01T02:43:52;11.83;;;8.87;;
20302;SDS011;10310;50.906;4.622;2022-08-01T02:46:25;13.83;;;9.67;;
20302;SDS011;10310;50.906;4.622;2022-08-01T02:49:05;14.17;;;9.70;;
20302;SDS011;10310;50.906;4.622;2022-08-01T02:51:36;13.83;;;9.80;;
20302;SDS011;10310;50.906;4.622;2022-08-01T02:54:05;12.33;;;10.10;;
20302;SDS011;10310;50.906;4.622;2022-08-01T02:56:35;13.17;;;9.80;;
20302;SDS011;10310;50.906;4.622;2022-08-01T02:59:07;16.13;;;10.73;;
20302;SDS011;10310;50.906;4.622;2022-08-01T03:01:36;11.90;;;9.30;;
20302;SDS011;10310;50.906;4.622;2022-08-01T03:04:05;13.23;;;9.47;;
20302;SDS011;10310;50.906;4.622;2022-08-01T03:06:33;12.10;;;10.50;;
20302;SDS011;10310;50.906;4.622;2022-08-01T03:09:03;13.10;;;10.20;;
20302;SDS011;10310;50.906;4.622;2022-08-01T03:11:31;13.57;;;10.67;;
20302;SDS011;10310;50.906;4.622;2022-08-01T03:14:02;15.83;;;11.97;;
20302;SDS011;10310;50.906;4.622;2022-08-01T03:16:31;16.87;;;11.20;;
20302;SDS011;10310;50.906;4.622;2022-08-01T03:19:02;16.47;;;11.77;;
20302;SDS011;10310;50.906;4.622;2022-08-01T03:21:29;17.07;;;11.70;;
20302;SDS011;10310;50.906;4.622;2022-08-01T03:23:59;22.07;;;13.13;;
20302;SDS011;10310;50.906;4.622;2022-08-01T03:26:31;16.57;;;11.47;;
20302;SDS011;10310;50.906;4.622;2022-08-01T03:29:02;21.47;;;12.67;;
20302;SDS011;10310;50.906;4.622;2022-08-01T03:31:32;19.07;;;12.43;;
20302;SDS011;10310;50.906;4.622;2022-08-01T03:34:01;18.00;;;11.97;;
20302;SDS011;10310;50.906;4.622;2022-08-01T03:36:29;20.37;;;13.03;;
20302;SDS011;10310;50.906;4.622;2022-08-01T03:38:58;19.17;;;13.93;;
20302;SDS011;10310;50.906;4.622;2022-08-01T03:41:31;22.97;;;13.63;;
20302;SDS011;10310;50.906;4.622;2022-08-01T03:44:04;23.63;;;14.40;;
20302;SDS011;10310;50.906;4.622;2022-08-01T03:46:40;22.93;;;15.40;;
20302;SDS011;10310;50.906;4.622;2022-08-01T03:49:10;25.17;;;16.83;;
20302;SDS011;10310;50.906;4.622;2022-08-01T03:51:40;23.43;;;15.50;;
20302;SDS011;10310;50.906;4.622;2022-08-01T03:54:10;28.83;;;16.47;;
20302;SDS011;10310;50.906;4.622;2022-08-01T03:56:39;28.10;;;16.17;;
20302;SDS011;10310;50.906;4.622;2022-08-01T03:59:17;26.90;;;15.70;;
20302;SDS011;10310;50.906;4.622;2022-08-01T04:01:45;26.77;;;16.40;;
20302;SDS011;10310;50.906;4.622;2022-08-01T04:04:12;28.43;;;16.30;;
20302;SDS011;10310;50.906;4.622;2022-08-01T04:06:40;32.73;;;17.30;;
20302;SDS011;10310;50.906;4.622;2022-08-01T04:09:09;25.73;;;17.20;;
20302;SDS011;10310;50.906;4.622;2022-08-01T04:11:37;30.97;;;18.30;;
20302;SDS011;10310;50.906;4.622;2022-08-01T04:14:05;31.67;;;17.50;;
20302;SDS011;10310;50.906;4.622;2022-08-01T04:16:32;31.43;;;17.70;;
20302;SDS011;10310;50.906;4.622;2022-08-01T04:18:59;32.27;;;18.77;;
20302;SDS011;10310;50.906;4.622;2022-08-01T04:21:26;29.00;;;18.57;;
20302;SDS011;10310;50.906;4.622;2022-08-01T04:23:58;29.17;;;19.20;;
20302;SDS011;10310;50.906;4.622;2022-08-01T04:26:30;34.50;;;19.60;;
20302;SDS011;10310;50.906;4.622;2022-08-01T04:29:00;40.13;;;20.37;;
20302;SDS011;10310;50.906;4.622;2022-08-01T04:31:29;31.10;;;19.90;;
20302;SDS011;10310;50.906;4.622;2022-08-01T04:33:57;36.23;;;20.10;;
20302;SDS011;10310;50.906;4.622;2022-08-01T04:36:26;32.97;;;18.53;;
20302;SDS011;10310;50.906;4.622;2022-08-01T04:38:58;27.00;;;17.80;;
20302;SDS011;10310;50.906;4.622;2022-08-01T04:41:27;30.30;;;18.70;;
20302;SDS011;10310;50.906;4.622;2022-08-01T04:43:56;36.43;;;19.40;;
20302;SDS011;10310;50.906;4.622;2022-08-01T04:46:25;32.43;;;18.53;;
20302;SDS011;10310;50.906;4.622;2022-08-01T04:48:53;24.60;;;17.53;;
20302;SDS011;10310;50.906;4.622;2022-08-01T04:51:21;27.47;;;17.47;;
20302;SDS011;10310;50.906;4.622;2022-08-01T04:53:49;28.07;;;17.47;;
20302;SDS011;10310;50.906;4.622;2022-08-01T04:56:17;22.40;;;16.60;;
20302;SDS011;10310;50.906;4.622;2022-08-01T04:58:44;24.53;;;16.67;;
20302;SDS011;10310;50.906;4.622;2022-08-01T05:01:11;23.87;;;17.13;;
20302;SDS011;10310;50.906;4.622;2022-08-01T05:03:39;23.23;;;15.87;;
20302;SDS011;10310;50.906;4.622;2022-08-01T05:06:06;22.73;;;15.63;;
20302;SDS011;10310;50.906;4.622;2022-08-01T05:08:33;22.90;;;15.70;;
20302;SDS011;10310;50.906;4.622;2022-08-01T05:11:01;20.37;;;14.70;;
20302;SDS011;10310;50.906;4.622;2022-08-01T05:13:28;20.43;;;14.47;;
20302;SDS011;10310;50.906;4.622;2022-08-01T05:15:55;19.17;;;14.43;;
20302;SDS011;10310;50.906;4.622;2022-08-01T05:18:22;19.60;;;14.03;;
20302;SDS011;10310;50.906;4.622;2022-08-01T05:20:50;18.80;;;13.83;;
20302;SDS011;10310;50.906;4.622;2022-08-01T05:23:17;22.53;;;14.17;;
20302;SDS011;10310;50.906;4.622;2022-08-01T05:25:44;20.63;;;13.77;;
20302;SDS011;10310;50.906;4.622;2022-08-01T05:28:11;21.90;;;13.60;;
20302;SDS011;10310;50.906;4.622;2022-08-01T05:30:38;17.87;;;13.50;;
20302;SDS011;10310;50.906;4.622;2022-08-01T05:33:05;20.90;;;15.27;;
20302;SDS011;10310;50.906;4.622;2022-08-01T05:35:32;21.27;;;14.67;;
20302;SDS011;10310;50.906;4.622;2022-08-01T05:38:00;16.90;;;13.57;;
20302;SDS011;10310;50.906;4.622;2022-08-01T05:40:27;18.00;;;13.80;;
20302;SDS011;10310;50.906;4.622;2022-08-01T05:42:54;17.40;;;14.00;;
20302;SDS011;10310;50.906;4.622;2022-08-01T05:45:21;17.70;;;13.23;;
20302;SDS011;10310;50.906;4.622;2022-08-01T05:47:48;16.37;;;12.47;;
20302;SDS011;10310;50.906;4.622;2022-08-01T05:50:15;20.50;;;12.87;;
20302;SDS011;10310;50.906;4.622;2022-08-01T05:52:42;16.50;;;12.00;;
20302;SDS011;10310;50.906;4.622;2022-08-01T05:55:10;14.00;;;11.50;;
20302;SDS011;10310;50.906;4.622;2022-08-01T05:57:37;14.13;;;11.17;;
20302;SDS011;10310;50.906;4.622;2022-08-01T06:00:04;15.17;;;10.03;;
20302;SDS011;10310;50.906;4.622;2022-08-01T06:02:32;15.20;;;10.50;;
20302;SDS011;10310;50.906;4.622;2022-08-01T06:04:59;18.57;;;10.37;;
20302;SDS011;10310;50.906;4.622;2022-08-01T06:07:26;12.77;;;9.00;;
20302;SDS011;10310;50.906;4.622;2022-08-01T06:09:53;12.37;;;9.37;;
20302;SDS011;10310;50.906;4.622;2022-08-01T06:12:21;12.60;;;9.10;;
20302;SDS011;10310;50.906;4.622;2022-08-01T06:14:48;14.20;;;9.47;;
20302;SDS011;10310;50.906;4.622;2022-08-01T06:17:15;13.67;;;9.00;;
20302;SDS011;10310;50.906;4.622;2022-08-01T06:19:42;10.93;;;8.97;;
20302;SDS011;10310;50.906;4.622;2022-08-01T06:22:09;11.63;;;8.27;;
20302;SDS011;10310;50.906;4.622;2022-08-01T06:24:36;10.03;;;8.30;;
20302;SDS011;10310;50.906;4.622;2022-08-01T06:27:04;10.40;;;7.83;;
20302;SDS011;10310;50.906;4.622;2022-08-01T06:29:32;9.43;;;7.33;;
20302;SDS011;10310;50.906;4.622;2022-08-01T06:31:59;11.50;;;8.43;;
20302;SDS011;10310;50.906;4.622;2022-08-01T06:34:26;10.23;;;8.27;;
20302;SDS011;10310;50.906;4.622;2022-08-01T06:36:53;12.17;;;8.20;;
20302;SDS011;10310;50.906;4.622;2022-08-01T06:39:20;10.13;;;7.60;;
20302;SDS011;10310;50.906;4.622;2022-08-01T06:41:47;7.73;;;6.97;;
20302;SDS011;10310;50.906;4.622;2022-08-01T06:44:14;9.50;;;7.17;;
20302;SDS011;10310;50.906;4.622;2022-08-01T06:46:42;9.30;;;7.00;;
20302;SDS011;10310;50.906;4.622;2022-08-01T06:49:09;9.00;;;7.33;;
20302;SDS011;10310;50.906;4.622;2022-08-01T06:51:36;8.87;;;6.73;;
20302;SDS011;10310;50.906;4.622;2022-08-01T06:54:03;7.60;;;6.80;;
20302;SDS011;10310;50.906;4.622;2022-08-01T06:56:30;9.40;;;7.13;;
20302;SDS011;10310;50.906;4.622;2022-08-01T06:59:00;10.13;;;6.90;;
20302;SDS011;10310;50.906;4.622;2022-08-01T07:01:27;9.10;;;8.10;;
20302;SDS011;10310;50.906;4.622;2022-08-01T07:03:55;8.87;;;7.47;;
20302;SDS011;10310;50.906;4.622;2022-08-01T07:06:22;8.50;;;7.13;;
20302;SDS011;10310;50.906;4.622;2022-08-01T07:08:49;8.80;;;7.37;;
20302;SDS011;10310;50.906;4.622;2022-08-01T07:11:17;8.97;;;7.60;;
20302;SDS011;10310;50.906;4.622;2022-08-01T07:13:44;8.60;;;7.33;;
20302;SDS011;10310;50.906;4.622;2022-08-01T07:16:11;9.67;;;8.67;;
20302;SDS011;10310;50.906;4.622;2022-08-01T07:18:38;7.70;;;6.90;;
20302;SDS011;10310;50.906;4.622;2022-08-01T07:21:06;7.80;;;7.00;;
20302;SDS011;10310;50.906;4.622;2022-08-01T07:23:34;8.47;;;7.40;;
20302;SDS011;10310;50.906;4.622;2022-08-01T07:26:02;8.40;;;7.33;;
20302;SDS011;10310;50.906;4.622;2022-08-01T07:28:29;8.53;;;7.73;;
20302;SDS011;10310;50.906;4.622;2022-08-01T07:30:56;7.70;;;6.90;;
20302;SDS011;10310;50.906;4.622;2022-08-01T07:33:23;7.80;;;7.00;;
20302;SDS011;10310;50.906;4.622;2022-08-01T07:35:50;8.43;;;7.00;;
20302;SDS011;10310;50.906;4.622;2022-08-01T07:38:18;7.77;;;7.07;;
20302;SDS011;10310;50.906;4.622;2022-08-01T07:40:45;8.97;;;7.80;;
20302;SDS011;10310;50.906;4.622;2022-08-01T07:43:12;9.53;;;8.00;;
20302;SDS011;10310;50.906;4.622;2022-08-01T07:45:39;9.60;;;7.83;;
20302;SDS011;10310;50.906;4.622;2022-08-01T07:48:07;8.90;;;7.90;;
20302;SDS011;10310;50.906;4.622;2022-08-01T07:50:34;8.27;;;7.40;;
20302;SDS011;10310;50.906;4.622;2022-08-01T07:53:01;8.93;;;8.00;;
20302;SDS011;10310;50.906;4.622;2022-08-01T07:55:29;8.30;;;7.60;;
20302;SDS011;10310;50.906;4.622;2022-08-01T07:57:56;7.23;;;6.10;;
20302;SDS011;10310;50.906;4.622;2022-08-01T08:00:23;7.70;;;7.00;;
20302;SDS011;10310;50.906;4.622;2022-08-01T08:02:50;8.07;;;7.37;;
20302;SDS011;10310;50.906;4.622;2022-08-01T08:05:18;7.77;;;7.00;;
20302;SDS011;10310;50.906;4.622;2022-08-01T08:07:45;7.27;;;6.67;;
20302;SDS011;10310;50.906;4.622;2022-08-01T08:10:12;7.07;;;6.37;;
20302;SDS011;10310;50.906;4.622;2022-08-01T08:12:40;7.13;;;6.53;;
20302;SDS011;10310;50.906;4.622;2022-08-01T08:15:08;6.00;;;5.50;;
20302;SDS011;10310;50.906;4.622;2022-08-01T08:17:35;5.60;;;5.07;;
20302;SDS011;10310;50.906;4.622;2022-08-01T08:20:03;4.77;;;4.17;;
20302;SDS011;10310;50.906;4.622;2022-08-01T08:22:31;4.70;;;4.30;;
20302;SDS011;10310;50.906;4.622;2022-08-01T08:24:58;6.47;;;5.03;;
20302;SDS011;10310;50.906;4.622;2022-08-01T08:27:25;5.00;;;4.50;;
20302;SDS011;10310;50.906;4.622;2022-08-01T08:29:53;4.60;;;4.07;;
20302;SDS011;10310;50.906;4.622;2022-08-01T08:32:20;5.23;;;3.83;;
20302;SDS011;10310;50.906;4.622;2022-08-01T08:34:47;5.70;;;4.40;;
20302;SDS011;10310;50.906;4.622;2022-08-01T08:37:13;5.37;;;4.30;;
20302;SDS011;10310;50.906;4.622;2022-08-01T08:39:42;5.07;;;4.30;;
20302;SDS011;10310;50.906;4.622;2022-08-01T08:42:09;5.77;;;4.57;;
20302;SDS011;10310;50.906;4.622;2022-08-01T08:44:37;6.37;;;4.90;;
20302;SDS011;10310;50.906;4.622;2022-08-01T08:47:07;4.70;;;4.30;;
20302;SDS011;10310;50.906;4.622;2022-08-01T08:49:36;5.93;;;5.40;;
20302;SDS011;10310;50.906;4.622;2022-08-01T08:52:04;6.00;;;5.60;;
20302;SDS011;10310;50.906;4.622;2022-08-01T08:54:31;5.70;;;5.13;;
20302;SDS011;10310;50.906;4.622;2022-08-01T08:56:59;6.30;;;5.80;;
20302;SDS011;10310;50.906;4.622;2022-08-01T08:59:26;6.57;;;5.97;;
20302;SDS011;10310;50.906;4.622;2022-08-01T09:01:53;7.80;;;7.10;;
20302;SDS011;10310;50.906;4.622;2022-08-01T09:04:22;7.73;;;7.03;;
20302;SDS011;10310;50.906;4.622;2022-08-01T09:06:50;7.33;;;6.63;;
20302;SDS011;10310;50.906;4.622;2022-08-01T09:09:18;7.10;;;6.50;;
20302;SDS011;10310;50.906;4.622;2022-08-01T09:11:44;7.40;;;6.70;;
20302;SDS011;10310;50.906;4.622;2022-08-01T09:14:13;7.47;;;6.80;;
20302;SDS011;10310;50.906;4.622;2022-08-01T09:16:47;6.80;;;6.20;;
20302;SDS011;10310;50.906;4.622;2022-08-01T09:19:27;6.47;;;5.97;;
20302;SDS011;10310;50.906;4.622;2022-08-01T09:22:04;5.90;;;5.40;;
20302;SDS011;10310;50.906;4.622;2022-08-01T09:24:32;6.43;;;5.80;;
20302;SDS011;10310;50.906;4.622;2022-08-01T09:27:00;6.00;;;5.40;;
20302;SDS011;10310;50.906;4.622;2022-08-01T09:29:40;5.00;;;4.60;;
20302;SDS011;10310;50.906;4.622;2022-08-01T09:32:09;4.43;;;4.13;;
20302;SDS011;10310;50.906;4.622;2022-08-01T09:34:37;6.03;;;4.30;;
20302;SDS011;10310;50.906;4.622;2022-08-01T09:37:04;4.50;;;4.10;;
20302;SDS011;10310;50.906;4.622;2022-08-01T09:39:32;4.00;;;3.70;;
20302;SDS011;10310;50.906;4.622;2022-08-01T09:44:45;4.33;;;4.03;;
20302;SDS011;10310;50.906;4.622;2022-08-01T09:47:13;4.77;;;4.37;;
20302;SDS011;10310;50.906;4.622;2022-08-01T09:49:43;4.27;;;3.80;;
20302;SDS011;10310;50.906;4.622;2022-08-01T09:52:11;4.03;;;3.63;;
20302;SDS011;10310;50.906;4.622;2022-08-01T09:54:40;4.67;;;4.20;;
20302;SDS011;10310;50.906;4.622;2022-08-01T09:57:09;3.90;;;3.60;;
20302;SDS011;10310;50.906;4.622;2022-08-01T09:59:39;4.23;;;4.00;;
20302;SDS011;10310;50.906;4.622;2022-08-01T10:02:08;3.80;;;3.50;;
20302;SDS011;10310;50.906;4.622;2022-08-01T10:04:46;4.17;;;3.37;;
20302;SDS011;10310;50.906;4.622;2022-08-01T10:07:14;5.50;;;3.90;;
20302;SDS011;10310;50.906;4.622;2022-08-01T10:09:42;4.40;;;4.10;;
20302;SDS011;10310;50.906;4.622;2022-08-01T10:12:11;4.53;;;4.13;;
20302;SDS011;10310;50.906;4.622;2022-08-01T10:14:40;4.30;;;3.90;;
20302;SDS011;10310;50.906;4.622;2022-08-01T10:17:07;4.47;;;4.07;;
20302;SDS011;10310;50.906;4.622;2022-08-01T10:19:37;4.27;;;3.97;;
20302;SDS011;10310;50.906;4.622;2022-08-01T10:22:09;4.07;;;3.77;;
20302;SDS011;10310;50.906;4.622;2022-08-01T10:24:39;3.97;;;3.67;;
20302;SDS011;10310;50.906;4.622;2022-08-01T10:27:07;3.70;;;3.40;;
20302;SDS011;10310;50.906;4.622;2022-08-01T10:29:36;4.27;;;3.90;;
20302;SDS011;10310;50.906;4.622;2022-08-01T10:32:07;3.27;;;3.07;;
20302;SDS011;10310;50.906;4.622;2022-08-01T10:34:36;3.70;;;3.40;;
20302;SDS011;10310;50.906;4.622;2022-08-01T10:37:03;3.53;;;3.23;;
20302;SDS011;10310;50.906;4.622;2022-08-01T10:39:33;3.57;;;3.37;;
20302;SDS011;10310;50.906;4.622;2022-08-01T10:42:00;3.13;;;2.93;;
20302;SDS011;10310;50.906;4.622;2022-08-01T10:44:28;3.50;;;3.20;;
20302;SDS011;10310;50.906;4.622;2022-08-01T10:46:57;4.27;;;3.87;;
20302;SDS011;10310;50.906;4.622;2022-08-01T10:49:29;3.50;;;3.30;;
20302;SDS011;10310;50.906;4.622;2022-08-01T10:52:00;3.90;;;3.60;;
20302;SDS011;10310;50.906;4.622;2022-08-01T10:54:28;4.13;;;3.83;;
20302;SDS011;10310;50.906;4.622;2022-08-01T10:56:56;4.50;;;4.10;;
20302;SDS011;10310;50.906;4.622;2022-08-01T10:59:26;3.67;;;3.37;;
20302;SDS011;10310;50.906;4.622;2022-08-01T11:01:58;4.03;;;3.73;;
20302;SDS011;10310;50.906;4.622;2022-08-01T11:04:33;3.97;;;3.57;;
20302;SDS011;10310;50.906;4.622;2022-08-01T11:07:07;4.03;;;3.17;;
20302;SDS011;10310;50.906;4.622;2022-08-01T11:09:40;3.77;;;3.47;;
20302;SDS011;10310;50.906;4.622;2022-08-01T11:12:11;3.60;;;3.40;;
20302;SDS011;10310;50.906;4.622;2022-08-01T11:17:49;3.50;;;3.20;;
20302;SDS011;10310;50.906;4.622;2022-08-01T11:20:18;3.20;;;3.00;;
20302;SDS011;10310;50.906;4.622;2022-08-01T11:26:08;4.07;;;2.53;;
20302;SDS011;10310;50.906;4.622;2022-08-01T11:28:42;2.63;;;2.43;;
20302;SDS011;10310;50.906;4.622;2022-08-01T11:31:24;2.83;;;2.63;;
20302;SDS011;10310;50.906;4.622;2022-08-01T11:33:55;2.27;;;2.07;;
20302;SDS011;10310;50.906;4.622;2022-08-01T11:36:22;2.17;;;1.70;;
20302;SDS011;10310;50.906;4.622;2022-08-01T11:38:49;2.47;;;1.77;;
20302;SDS011;10310;50.906;4.622;2022-08-01T11:41:37;4.07;;;1.80;;
20302;SDS011;10310;50.906;4.622;2022-08-01T11:44:07;1.97;;;1.40;;
20302;SDS011;10310;50.906;4.622;2022-08-01T11:46:47;2.43;;;1.50;;
20302;SDS011;10310;50.906;4.622;2022-08-01T11:49:23;2.07;;;1.47;;
20302;SDS011;10310;50.906;4.622;2022-08-01T11:52:12;2.17;;;1.70;;
20302;SDS011;10310;50.906;4.622;2022-08-01T11:54:41;2.70;;;1.43;;
20302;SDS011;10310;50.906;4.622;2022-08-01T11:57:10;2.67;;;1.40;;
20302;SDS011;10310;50.906;4.622;2022-08-01T11:59:40;1.90;;;1.40;;
20302;SDS011;10310;50.906;4.622;2022-08-01T12:02:23;2.03;;;1.27;;
20302;SDS011;10310;50.906;4.622;2022-08-01T12:04:53;2.90;;;1.47;;
20302;SDS011;10310;50.906;4.622;2022-08-01T12:07:22;2.47;;;1.30;;
20302;SDS011;10310;50.906;4.622;2022-08-01T12:09:56;2.63;;;1.60;;
20302;SDS011;10310;50.906;4.622;2022-08-01T12:12:25;2.57;;;1.30;;
20302;SDS011;10310;50.906;4.622;2022-08-01T12:14:55;1.80;;;1.30;;
20302;SDS011;10310;50.906;4.622;2022-08-01T12:17:31;2.50;;;1.20;;
20302;SDS011;10310;50.906;4.622;2022-08-01T12:19:59;2.93;;;1.40;;
20302;SDS011;10310;50.906;4.622;2022-08-01T12:22:27;3.30;;;1.50;;
20302;SDS011;10310;50.906;4.622;2022-08-01T12:24:54;2.83;;;1.60;;
20302;SDS011;10310;50.906;4.622;2022-08-01T12:27:24;3.80;;;1.40;;
20302;SDS011;10310;50.906;4.622;2022-08-01T12:29:55;1.80;;;1.40;;
20302;SDS011;10310;50.906;4.622;2022-08-01T12:32:24;1.50;;;1.30;;
20302;SDS011;10310;50.906;4.622;2022-08-01T12:34:52;3.83;;;1.43;;
20302;SDS011;10310;50.906;4.622;2022-08-01T12:37:20;3.10;;;1.37;;
20302;SDS011;10310;50.906;4.622;2022-08-01T12:39:48;1.90;;;1.50;;
20302;SDS011;10310;50.906;4.622;2022-08-01T12:42:15;2.03;;;1.63;;
20302;SDS011;10310;50.906;4.622;2022-08-01T12:44:43;3.63;;;1.50;;
20302;SDS011;10310;50.906;4.622;2022-08-01T12:47:13;2.57;;;1.20;;
20302;SDS011;10310;50.906;4.622;2022-08-01T12:49:41;2.67;;;1.30;;
20302;SDS011;10310;50.906;4.622;2022-08-01T12:52:09;1.93;;;1.40;;
20302;SDS011;10310;50.906;4.622;2022-08-01T12:57:31;2.30;;;1.20;;
20302;SDS011;10310;50.906;4.622;2022-08-01T13:00:05;1.97;;;1.30;;
20302;SDS011;10310;50.906;4.622;2022-08-01T13:02:39;2.87;;;1.40;;
20302;SDS011;10310;50.906;4.622;2022-08-01T13:05:06;1.60;;;1.20;;
20302;SDS011;10310;50.906;4.622;2022-08-01T13:07:35;2.00;;;1.10;;
20302;SDS011;10310;50.906;4.622;2022-08-01T13:10:10;0.93;;;0.90;;
20302;SDS011;10310;50.906;4.622;2022-08-01T13:12:38;1.67;;;1.20;;
20302;SDS011;10310;50.906;4.622;2022-08-01T13:15:19;1.53;;;1.30;;
20302;SDS011;10310;50.906;4.622;2022-08-01T13:17:52;2.40;;;1.17;;
20302;SDS011;10310;50.906;4.622;2022-08-01T13:20:27;4.03;;;1.30;;
20302;SDS011;10310;50.906;4.622;2022-08-01T13:23:09;1.70;;;1.27;;
20302;SDS011;10310;50.906;4.622;2022-08-01T13:25:46;2.43;;;1.30;;
20302;SDS011;10310;50.906;4.622;2022-08-01T13:28:15;1.47;;;1.10;;
20302;SDS011;10310;50.906;4.622;2022-08-01T13:30:53;2.83;;;1.20;;
20302;SDS011;10310;50.906;4.622;2022-08-01T13:33:23;2.30;;;1.10;;
20302;SDS011;10310;50.906;4.622;2022-08-01T13:35:52;1.53;;;1.17;;
20302;SDS011;10310;50.906;4.622;2022-08-01T13:38:20;2.00;;;1.20;;
20302;SDS011;10310;50.906;4.622;2022-08-01T13:41:09;3.90;;;1.57;;
20302;SDS011;10310;50.906;4.622;2022-08-01T13:43:35;2.47;;;1.50;;
20302;SDS011;10310;50.906;4.622;2022-08-01T13:46:02;2.60;;;1.40;;
20302;SDS011;10310;50.906;4.622;2022-08-01T13:48:34;3.30;;;1.30;;
20302;SDS011;10310;50.906;4.622;2022-08-01T13:51:01;2.60;;;1.37;;
20302;SDS011;10310;50.906;4.622;2022-08-01T13:53:28;1.97;;;1.17;;
20302;SDS011;10310;50.906;4.622;2022-08-01T13:55:55;1.50;;;1.20;;
20302;SDS011;10310;50.906;4.622;2022-08-01T13:58:22;1.40;;;1.20;;
20302;SDS011;10310;50.906;4.622;2022-08-01T14:00:49;1.60;;;1.33;;
20302;SDS011;10310;50.906;4.622;2022-08-01T14:03:16;2.13;;;1.20;;
20302;SDS011;10310;50.906;4.622;2022-08-01T14:05:44;1.57;;;1.13;;
20302;SDS011;10310;50.906;4.622;2022-08-01T14:08:11;1.53;;;1.03;;
20302;SDS011;10310;50.906;4.622;2022-08-01T14:10:39;3.87;;;1.30;;
20302;SDS011;10310;50.906;4.622;2022-08-01T14:13:05;2.33;;;1.10;;
20302;SDS011;10310;50.906;4.622;2022-08-01T14:15:32;2.47;;;1.10;;
20302;SDS011;10310;50.906;4.622;2022-08-01T14:17:59;3.53;;;1.40;;
20302;SDS011;10310;50.906;4.622;2022-08-01T14:20:26;1.60;;;1.40;;
20302;SDS011;10310;50.906;4.622;2022-08-01T14:22:54;1.67;;;1.37;;
20302;SDS011;10310;50.906;4.622;2022-08-01T14:25:21;1.10;;;1.00;;
20302;SDS011;10310;50.906;4.622;2022-08-01T14:27:48;2.43;;;1.20;;
20302;SDS011;10310;50.906;4.622;2022-08-01T14:30:15;1.70;;;1.23;;
20302;SDS011;10310;50.906;4.622;2022-08-01T14:32:42;4.87;;;1.47;;
20302;SDS011;10310;50.906;4.622;2022-08-01T14:35:09;1.70;;;1.20;;
20302;SDS011;10310;50.906;4.622;2022-08-01T14:37:36;1.90;;;1.40;;
20302;SDS011;10310;50.906;4.622;2022-08-01T14:40:05;1.73;;;1.47;;
20302;SDS011;10310;50.906;4.622;2022-08-01T14:42:34;1.53;;;1.10;;
20302;SDS011;10310;50.906;4.622;2022-08-01T14:45:01;1.65;;;1.13;;
20302;SDS011;10310;50.906;4.622;2022-08-01T14:47:33;1.27;;;1.17;;
20302;SDS011;10310;50.906;4.622;2022-08-01T14:50:01;2.60;;;1.23;;
20302;SDS011;10310;50.906;4.622;2022-08-01T14:52:28;1.45;;;1.20;;
20302;SDS011;10310;50.906;4.622;2022-08-01T14:54:55;2.63;;;1.35;;
20302;SDS011;10310;50.906;4.622;2022-08-01T14:57:23;2.25;;;1.38;;
20302;SDS011;10310;50.906;4.622;2022-08-01T14:59:50;1.63;;;1.13;;
20302;SDS011;10310;50.906;4.622;2022-08-01T15:02:17;1.73;;;1.20;;
20302;SDS011;10310;50.906;4.622;2022-08-01T15:04:44;1.33;;;1.23;;